• Join FlightAware (Why Join?)
  • Login
  • US Flag 
03:07AM EDT


 

Airport Tracker/Info


-or-


 

Live Flight TrackerFlight Track Log ✈ N589AA ✈ 18-Apr-2012 ✈ KPDX - KDFW

Flight Track Log - Related Links

Times and Time Zones

All times are in EDT time to prevent confusion due to time zone crossing. See the N589AA flight status page for this flight to view local times or setup timezone preferences in your user account.

Time Position Orientation Groundspeed Altitude Reporting Facility
EDT Latitude Longitude Course Direction KTS MPH feet Rate Location/Type
09:03AM 45.5787 -122.5553 288° West  Level FlightAware Approximate
09:03AM 45.5797 -122.5600 104° East 178 205 700  Level Seattle Center
09:04AM 45.5686 -122.4964 96° East 205 236 2,400 1,800 Climbing Seattle Center
09:05AM 45.5653 -122.4500 105° East 225 259 3,400 2,160 Climbing Seattle Center
09:06AM 45.5461 -122.3458 139° Southeast 252 290 6,100 2,640 Climbing Seattle Center
09:07AM 45.4906 -122.2761 146° Southeast 270 311 8,800 2,520 Climbing Seattle Center
09:08AM 45.4228 -122.2111 147° Southeast 288 331 11,200 1,860 Climbing Seattle Center
09:09AM 45.3417 -122.1375 146° Southeast 347 399 12,600 1,740 Climbing Seattle Center
09:10AM 45.2533 -122.0544 113° Southeast 383 441 14,800 2,280 Climbing Seattle Center
09:11AM 45.2008 -121.8819 109° East 429 494 17,200 2,040 Climbing Seattle Center
09:12AM 45.1619 -121.7233 109° East 431 496 19,000 1,680 Climbing Seattle Center
09:13AM 45.1219 -121.5564 109° East 444 511 20,700 1,620 Climbing Seattle Center
09:14AM 45.0794 -121.3847 110° East 460 529 22,400 1,500 Climbing Seattle Center
09:15AM 45.0356 -121.2108 110° East 470 541 23,800 1,320 Climbing Seattle Center
09:16AM 44.9906 -121.0331 109° East 480 552 25,100 1,140 Climbing Seattle Center
09:17AM 44.9453 -120.8525 110° East 489 563 26,200 1,140 Climbing Seattle Center
09:18AM 44.8981 -120.6678 110° East 500 575 27,500 1,260 Climbing Seattle Center
09:19AM 44.8508 -120.4858 110° East 502 578 28,800 1,140 Climbing Seattle Center
09:20AM 44.8039 -120.3025 110° East 503 579 29,900 960 Climbing Seattle Center
09:21AM 44.7472 -120.0836 110° East 507 583 30,800 900 Climbing Seattle Center
09:22AM 44.6986 -119.9000 110° East 511 588 31,800 900 Climbing Seattle Center
09:23AM 44.6503 -119.7153 112° Southeast 514 592 32,700 540 Climbing Seattle Center
09:24AM 44.5978 -119.5342 113° Southeast 510 587 33,000 120 Climbing Seattle Center
09:25AM 44.5439 -119.3536 112° Southeast 508 585 33,000  Level Seattle Center
09:26AM 44.4906 -119.1731 113° Southeast 507 583 33,000  Level Seattle Center
09:27AM 44.4372 -118.9936 113° Southeast 505 581 33,000  Level Seattle Center
09:28AM 44.3831 -118.8169 113° Southeast 501 577 33,000  Level Seattle Center
09:29AM 44.3300 -118.6417 112° Southeast 495 570 33,000  Level Seattle Center
09:30AM 44.2681 -118.4322 113° Southeast 493 567 33,000  Level Seattle Center
09:31AM 44.2150 -118.2600 120° Southeast 489 563 33,000  Level Seattle Center
09:32AM 44.1478 -118.0956 117° Southeast 482 555 33,000  Level Seattle Center
09:33AM 44.0881 -117.9347 117° Southeast 488 562 33,000  Level Seattle Center
09:34AM 44.0300 -117.7764 118° Southeast 485 558 33,000  Level Seattle Center
09:35AM 43.9572 -117.5897 118° Southeast 490 564 33,000  Level Seattle Center
09:37AM 43.8658 -117.3486 118° Southeast 492 566 33,000  Level Salt Lake Center
09:38AM 43.8050 -117.1900 118° Southeast 489 563 33,000  Level Salt Lake Center
09:39AM 43.7339 -117.0042 118° Southeast 491 565 33,000  Level Salt Lake Center
09:40AM 43.6728 -116.8436 118° Southeast 494 568 33,000  Level Salt Lake Center
09:41AM 43.6003 -116.6586 118° Southeast 494 568 33,000  Level Salt Lake Center
09:42AM 43.5383 -116.4983 118° Southeast 496 571 33,000  Level Salt Lake Center
09:43AM 43.4656 -116.3131 119° Southeast 494 568 33,000  Level Salt Lake Center
09:44AM 43.4028 -116.1550 119° Southeast 494 568 33,000  Level Salt Lake Center
09:45AM 43.3403 -115.9992 119° Southeast 489 563 33,000  Level Salt Lake Center
09:46AM 43.2667 -115.8161 119° Southeast 491 565 33,000  Level Salt Lake Center
09:47AM 43.2025 -115.6578 119° Southeast 496 571 33,000  Level Salt Lake Center
09:48AM 43.1281 -115.4733 119° Southeast 497 572 33,000  Level Salt Lake Center
09:49AM 43.0639 -115.3164 119° Southeast 496 571 33,000  Level Salt Lake Center
09:50AM 42.9994 -115.1603 119° Southeast 494 568 33,000  Level Salt Lake Center
09:51AM 42.9242 -114.9781 120° Southeast 495 570 33,000  Level Salt Lake Center
09:52AM 42.8597 -114.8247 119° Southeast 487 560 33,000  Level Salt Lake Center
09:53AM 42.7858 -114.6453 120° Southeast 487 560 33,000  Level Salt Lake Center
09:54AM 42.7264 -114.5069 120° Southeast 481 554 33,000  Level Salt Lake Center
09:55AM 42.6472 -114.3192 120° Southeast 485 558 33,000  Level Salt Lake Center
09:56AM 42.5789 -114.1603 120° Southeast 484 557 33,000  Level Salt Lake Center
09:57AM 42.5103 -114.0003 120° Southeast 486 559 33,000  Level Salt Lake Center
09:58AM 42.4419 -113.8411 121° Southeast 484 557 33,000  Level Salt Lake Center
09:59AM 42.3728 -113.6828 121° Southeast 485 558 33,000  Level Salt Lake Center
10:00AM 42.3039 -113.5256 121° Southeast 484 557 33,000  Level Salt Lake Center
10:01AM 42.2353 -113.3694 121° Southeast 481 554 33,000  Level Salt Lake Center
10:02AM 42.1667 -113.2133 121° Southeast 481 554 33,000  Level Salt Lake Center
10:03AM 42.0961 -113.0553 121° Southeast 484 557 33,000  Level Salt Lake Center
10:04AM 42.0253 -112.8969 121° Southeast 488 562 33,000  Level Salt Lake Center
10:05AM 41.9436 -112.7136 122° Southeast 487 560 33,000  Level Salt Lake Center
10:06AM 41.8719 -112.5578 122° Southeast 485 558 33,000  Level Salt Lake Center
10:07AM 41.8000 -112.4019 121° Southeast 486 559 33,000  Level Salt Lake Center
10:08AM 41.7292 -112.2450 122° Southeast 488 562 33,000  Level Salt Lake Center
10:09AM 41.6569 -112.0883 121° Southeast 488 562 33,000  Level Salt Lake Center
10:10AM 41.5856 -111.9317 122° Southeast 487 560 33,000  Level Salt Lake Center
10:11AM 41.5136 -111.7761 122° Southeast 486 559 33,000  Level Salt Lake Center
10:13AM 41.4419 -111.6214 122° Southeast 484 557 33,000  Level Salt Lake Center
10:14AM 41.3683 -111.4658 121° Southeast 486 559 33,000  Level Salt Lake Center
10:15AM 41.2967 -111.3103 122° Southeast 486 559 33,000  Level Salt Lake Center
10:16AM 41.2231 -111.1567 122° Southeast 486 559 33,000  Level Salt Lake Center
10:17AM 41.1500 -111.0028 122° Southeast 487 560 33,000  Level Salt Lake Center
10:18AM 41.0778 -110.8517 122° Southeast 482 555 33,000  Level Salt Lake Center
10:19AM 40.9947 -110.6764 123° Southeast 478 550 33,000  Level Salt Lake Center
10:20AM 40.9253 -110.5325 122° Southeast 476 548 33,000  Level Salt Lake Center
10:21AM 40.8572 -110.3911 123° Southeast 477 549 33,000  Level Salt Lake Center
10:22AM 40.7792 -110.2314 123° Southeast 482 555 33,000  Level Salt Lake Center
10:23AM 40.6969 -110.0639 123° Southeast 486 559 33,000  Level Salt Lake Center
10:24AM 40.6264 -109.9203 123° Southeast 486 559 33,000  Level Salt Lake Center
10:25AM 40.5553 -109.7764 123° Southeast 489 563 33,000  Level Salt Lake Center
10:26AM 40.4722 -109.6094 123° Southeast 490 564 33,000  Level Salt Lake Center
10:27AM 40.4017 -109.4667 123° Southeast 488 562 33,000  Level Salt Lake Center
10:28AM 40.3181 -109.3000 123° Southeast 488 562 33,000  Level Salt Lake Center
10:29AM 40.2467 -109.1586 124° Southeast 487 560 33,000  Level Salt Lake Center
10:30AM 40.1631 -108.9947 123° Southeast 485 558 33,000  Level Salt Lake Center
10:31AM 40.0928 -108.8550 124° Southeast 481 554 33,000  Level Salt Lake Center
10:32AM 40.0211 -108.7153 123° Southeast 481 554 33,000  Level Salt Lake Center
10:33AM 39.9375 -108.5506 124° Southeast 482 555 33,000  Level Salt Lake Center
10:34AM 39.8644 -108.4111 124° Southeast 483 556 33,000  Level Salt Lake Center
10:35AM 39.8064 -108.2978 123° Southeast 488 562 33,000  Level Denver Center
10:36AM 39.7314 -108.1500 125° Southeast 488 562 33,000  Level Denver Center
10:37AM 39.6561 -108.0106 124° Southeast 494 568 33,000  Level Denver Center
10:38AM 39.5869 -107.8769 125° Southeast 489 563 33,000  Level Denver Center
10:39AM 39.5114 -107.7383 124° Southeast 489 563 33,000  Level Denver Center
10:40AM 39.4297 -107.5808 125° Southeast 489 563 33,000  Level Denver Center
10:41AM 39.3539 -107.4400 124° Southeast 489 563 33,000  Level Denver Center
10:42AM 39.2861 -107.3103 126° Southeast 489 563 33,000  Level Denver Center
10:43AM 39.2078 -107.1700 124° Southeast 484 557 33,000  Level Denver Center
10:44AM 39.1253 -107.0139 125° Southeast 484 557 33,000  Level Denver Center
10:45AM 39.0486 -106.8742 126° Southeast 484 557 33,000  Level Denver Center
10:46AM 38.9783 -106.7483 124° Southeast 484 557 33,000  Level Denver Center
10:47AM 38.9056 -106.6092 125° Southeast 484 557 33,000  Level Denver Center
10:48AM 38.8222 -106.4544 127° Southeast 473 544 33,000  Level Denver Center
10:49AM 38.7428 -106.3214 124° Southeast 473 544 33,000  Level Denver Center
10:50AM 38.6739 -106.1911 125° Southeast 479 551 33,000  Level Denver Center
10:51AM 38.5919 -106.0403 125° Southeast 473 544 33,000  Level Denver Center
10:52AM 38.5164 -105.9028 126° Southeast 473 544 33,000  Level Denver Center
10:53AM 38.4344 -105.7603 125° Southeast 489 563 33,000  Level Denver Center
10:54AM 38.3583 -105.6206 128° Southeast 489 563 33,000  Level Denver Center
10:55AM 38.2803 -105.4947 124° Southeast 465 535 33,000  Level Denver Center
10:56AM 38.2058 -105.3531 127° Southeast 465 535 33,000  Level Denver Center
10:57AM 38.1275 -105.2222 125° Southeast 471 542 33,000  Level Denver Center
10:58AM 38.0592 -105.0969 126° Southeast 476 548 33,000  Level Denver Center
10:59AM 37.9742 -104.9511 127° Southeast 471 542 33,000  Level Denver Center
11:00AM 37.8950 -104.8161 126° Southeast 476 548 33,000  Level Denver Center
11:01AM 37.8181 -104.6839 126° Southeast 476 548 33,000  Level Denver Center
11:02AM 37.7472 -104.5597 127° Southeast 476 548 33,000  Level Denver Center
11:03AM 37.6614 -104.4150 126° Southeast 472 543 33,000  Level Denver Center
11:04AM 37.5839 -104.2811 127° Southeast 472 543 33,000  Level Denver Center
11:05AM 37.5106 -104.1603 126° Southeast 478 550 33,000  Level Denver Center
11:06AM 37.4242 -104.0114 126° Southeast 478 550 33,000  Level Denver Center
11:08AM 37.2658 -103.7392 127° Southeast 467 537 33,000  Level Albuquerque Center
11:09AM 37.1864 -103.6047 127° Southeast 472 543 33,000  Level Albuquerque Center
11:10AM 37.1050 -103.4708 127° Southeast 477 549 33,000  Level Albuquerque Center
11:11AM 37.0344 -103.3519 127° Southeast 477 549 33,000  Level Albuquerque Center
11:12AM 36.9458 -103.2058 127° Southeast 472 543 33,000  Level Albuquerque Center
11:13AM 36.8661 -103.0753 127° Southeast 472 543 33,000  Level Albuquerque Center
11:14AM 36.7864 -102.9447 127° Southeast 478 550 33,000  Level Albuquerque Center
11:15AM 36.7153 -102.8269 126° Southeast 478 550 33,000  Level Albuquerque Center
11:16AM 36.6283 -102.6794 129° Southeast 478 550 33,000  Level Albuquerque Center
11:17AM 36.5547 -102.5647 126° Southeast 472 543 33,000  Level Albuquerque Center
11:18AM 36.4764 -102.4328 127° Southeast 477 549 33,000  Level Albuquerque Center
11:19AM 36.3958 -102.3011 125° Southeast 477 549 33,000  Level Albuquerque Center
11:20AM 36.3192 -102.1667 127° Southeast 477 549 33,000  Level Albuquerque Center
11:21AM 36.2406 -102.0381 127° Southeast 477 549 33,000  Level Albuquerque Center
11:22AM 36.1594 -101.9069 126° Southeast 477 549 33,000  Level Albuquerque Center
11:23AM 36.0825 -101.7761 126° Southeast 477 549 33,000  Level Albuquerque Center
11:24AM 36.0031 -101.6431 128° Southeast 477 549 33,000  Level Albuquerque Center
11:25AM 35.9217 -101.5131 127° Southeast 477 549 33,000  Level Albuquerque Center
11:26AM 35.8400 -101.3808 127° Southeast 482 555 33,000  Level Albuquerque Center
11:27AM 35.7603 -101.2486 127° Southeast 482 555 33,000  Level Albuquerque Center
11:28AM 35.6739 -101.1067 128° Southeast 487 560 33,000  Level Albuquerque Center
11:29AM 35.5897 -100.9756 127° Southeast 487 560 33,000  Level Albuquerque Center
11:30AM 35.5097 -100.8467 127° Southeast 487 560 33,000  Level Albuquerque Center
11:31AM 35.4269 -100.7106 129° Southeast 487 560 33,000  Level Albuquerque Center
11:32AM 35.3494 -100.5922 128° Southeast 494 568 33,000  Level Albuquerque Center
11:34AM 35.1603 -100.2933 128° Southeast 501 577 33,000  Level Fort Worth Center
11:35AM 35.0778 -100.1636 127° Southeast 501 577 33,000  Level Fort Worth Center
11:36AM 34.9950 -100.0317 128° Southeast 501 577 33,000  Level Fort Worth Center
11:37AM 34.9100 -99.9000 128° Southeast 501 577 33,000  Level Fort Worth Center
11:38AM 34.8250 -99.7683 128° Southeast 501 577 33,000 -1,020 Level Fort Worth Center
11:39AM 34.7397 -99.6372 128° Southeast 501 577 31,000 -1,020 Descending Fort Worth Center
11:40AM 34.6564 -99.5089 128° Southeast 501 577 31,000 -300 Level Fort Worth Center
11:41AM 34.5731 -99.3781 128° Southeast 496 571 30,500 -720 Descending Fort Worth Center
11:42AM 34.4894 -99.2478 140° Southeast 491 565 29,600 -960 Descending Fort Worth Center
11:43AM 34.3928 -99.1500 155° Southeast 462 532 28,600 -1,020 Descending Fort Worth Center
11:44AM 34.2789 -99.0850 138° Southeast 449 517 27,600 -1,020 Descending Fort Worth Center
11:45AM 34.1883 -98.9853 122° Southeast 442 509 26,600 -1,020 Descending Fort Worth Center
11:46AM 34.1192 -98.8536 125° Southeast 447 514 25,600 -1,020 Descending Fort Worth Center
11:47AM 34.0556 -98.7422 124° Southeast 447 514 24,600 -840 Descending Fort Worth Center
11:48AM 33.9797 -98.6083 124° Southeast 447 514 24,000 -300 Descending Fort Worth Center
11:49AM 33.9119 -98.4872 124° Southeast 442 509 24,000 -660 Level Fort Worth Center
11:50AM 33.8419 -98.3614 125° Southeast 442 509 22,700 -1,620 Descending Fort Worth Center
11:51AM 33.7742 -98.2431 126° Southeast 442 509 20,800 -1,860 Descending Fort Worth Center
11:52AM 33.7100 -98.1350 123° Southeast 424 488 19,000 -1,800 Descending Fort Worth Center
11:53AM 33.6481 -98.0222 124° Southeast 410 472 17,200 -1,800 Descending Fort Worth Center
11:54AM 33.5900 -97.9197 122° Southeast 393 452 15,500 -1,860 Descending Fort Worth Center
11:55AM 33.5572 -97.8564 132° Southeast 363 418 14,300 -1,860 Descending FAA TRACON SMA TRACON (SMA)
11:56AM 33.4908 -97.7689 136° Southeast 351 404 12,500 -1,680 Descending FAA TRACON SMA TRACON (SMA)
11:56AM 33.4447 -97.7147 135° Southeast 334 384 11,500 -1,140 Descending FAA TRACON SMA TRACON (SMA)
11:57AM 33.4067 -97.6689 135° Southeast 313 360 11,000 -420 Descending FAA TRACON SMA TRACON (SMA)
11:58AM 33.3675 -97.6219 136° Southeast 284 327 11,000 -540 Level FAA TRACON SMA TRACON (SMA)
11:58AM 33.3306 -97.5786 133° Southeast 284 327 10,300 -1,440 Descending FAA TRACON SMA TRACON (SMA)
11:59AM 33.2931 -97.5297 134° Southeast 286 329 9,100 -1,680 Descending FAA TRACON SMA TRACON (SMA)
12:00PM 33.2589 -97.4869 134° Southeast 289 333 8,100 -1,500 Descending FAA TRACON SMA TRACON (SMA)
12:00PM 33.2217 -97.4406 134° Southeast 282 325 7,100 -1,500 Descending FAA TRACON SMA TRACON (SMA)
12:01PM 33.1828 -97.3925 134° Southeast 272 313 6,000 -1,680 Descending FAA TRACON SMA TRACON (SMA)
12:02PM 33.1497 -97.3519 132° Southeast 277 319 5,000 -1,080 Descending FAA TRACON SMA TRACON (SMA)
12:02PM 33.1164 -97.3083 134° Southeast 277 319 4,700 -600 Descending FAA TRACON SMA TRACON (SMA)
12:03PM 33.0850 -97.2697 134° Southeast 263 303 4,200 -720 Descending FAA TRACON SMA TRACON (SMA)
12:04PM 33.0544 -97.2322 139° Southeast 227 261 3,800 -600 Descending FAA TRACON SMA TRACON (SMA)
12:04PM 33.0264 -97.2028 139° Southeast 196 226 3,400 -600 Descending FAA TRACON SMA TRACON (SMA)